sensor_id;sensor_type;location;lat;lon;timestamp;pressure;altitude;pressure_sealevel;temperature;humidity
15260;BME280;34462;51.368;12.364;2023-09-19T00:00:44;20610.59;;;-141.84;83.27
15260;BME280;34462;51.368;12.364;2023-09-19T00:03:14;20610.59;;;-141.84;83.01
15260;BME280;34462;51.368;12.364;2023-09-19T00:05:43;20574.00;;;-141.84;83.63
15260;BME280;34462;51.368;12.364;2023-09-19T00:08:13;20584.19;;;-141.84;83.36
15260;BME280;34462;51.368;12.364;2023-09-19T00:10:43;20563.84;;;-141.84;84.07
15260;BME280;34462;51.368;12.364;2023-09-19T00:13:11;20549.63;;;-141.84;85.05
15260;BME280;34462;51.368;12.364;2023-09-19T00:15:44;20561.81;;;-141.84;85.37
15260;BME280;34462;51.368;12.364;2023-09-19T00:18:16;20610.59;;;-141.84;84.19
15260;BME280;34462;51.368;12.364;2023-09-19T00:20:46;20596.38;;;-141.84;83.43
15260;BME280;34462;51.368;12.364;2023-09-19T00:23:17;20604.50;;;-141.84;84.15
15260;BME280;34462;51.368;12.364;2023-09-19T00:25:48;20565.88;;;-141.84;84.80
15260;BME280;34462;51.368;12.364;2023-09-19T00:28:17;20468.31;;;-141.84;85.42
15260;BME280;34462;51.368;12.364;2023-09-19T00:30:47;20531.31;;;-141.84;85.77
15260;BME280;34462;51.368;12.364;2023-09-19T00:33:17;20517.09;;;-141.84;86.43
15260;BME280;34462;51.368;12.364;2023-09-19T00:35:50;20515.06;;;-141.84;86.21
15260;BME280;34462;51.368;12.364;2023-09-19T00:38:19;20535.41;;;-141.84;86.43
15260;BME280;34462;51.368;12.364;2023-09-19T00:40:52;20460.19;;;-141.84;87.01
15260;BME280;34462;51.368;12.364;2023-09-19T00:43:20;20468.31;;;-141.84;87.42
15260;BME280;34462;51.368;12.364;2023-09-19T00:45:53;20458.16;;;-141.84;87.72
15260;BME280;34462;51.368;12.364;2023-09-19T00:48:23;20427.66;;;-141.84;87.99
15260;BME280;34462;51.368;12.364;2023-09-19T00:50:59;20435.78;;;-141.84;88.26
15260;BME280;34462;51.368;12.364;2023-09-19T00:53:31;20435.78;;;-141.84;88.45
15260;BME280;34462;51.368;12.364;2023-09-19T00:56:03;20456.13;;;-141.84;87.90
15260;BME280;34462;51.368;12.364;2023-09-19T00:58:36;20443.91;;;-141.84;88.16
15260;BME280;34462;51.368;12.364;2023-09-19T01:01:06;20429.69;;;-141.84;87.95
15260;BME280;34462;51.368;12.364;2023-09-19T01:03:36;20409.38;;;-141.84;88.40
15260;BME280;34462;51.368;12.364;2023-09-19T01:06:05;20447.97;;;-141.84;87.80
15260;BME280;34462;51.368;12.364;2023-09-19T01:08:34;20417.50;;;-141.84;88.14
15260;BME280;34462;51.368;12.364;2023-09-19T01:11:13;20403.25;;;-141.84;88.01
15260;BME280;34462;51.368;12.364;2023-09-19T01:13:55;20421.56;;;-141.84;87.54
15260;BME280;34462;51.368;12.364;2023-09-19T01:16:36;20486.59;;;-141.84;87.00
15260;BME280;34462;51.368;12.364;2023-09-19T01:20:00;20480.50;;;-141.84;86.78
15260;BME280;34462;51.368;12.364;2023-09-19T01:22:42;20513.03;;;-141.84;85.41
15260;BME280;34462;51.368;12.364;2023-09-19T01:28:53;20415.47;;;-141.84;87.07
15260;BME280;34462;51.368;12.364;2023-09-19T01:31:25;20458.16;;;-141.84;86.51
15260;BME280;34462;51.368;12.364;2023-09-19T01:33:59;20464.25;;;-141.84;86.44
15260;BME280;34462;51.368;12.364;2023-09-19T01:36:30;20456.13;;;-141.84;86.86
15260;BME280;34462;51.368;12.364;2023-09-19T01:39:04;20435.78;;;-141.84;86.77
15260;BME280;34462;51.368;12.364;2023-09-19T01:41:53;20423.59;;;-141.84;87.27
15260;BME280;34462;51.368;12.364;2023-09-19T01:44:36;20431.72;;;-141.84;86.50
15260;BME280;34462;51.368;12.364;2023-09-19T01:47:18;20403.25;;;-141.84;87.99
15260;BME280;34462;51.368;12.364;2023-09-19T01:50:01;20360.59;;;-141.84;88.90
15260;BME280;34462;51.368;12.364;2023-09-19T01:52:38;20358.56;;;-141.84;89.59
15260;BME280;34462;51.368;12.364;2023-09-19T01:55:12;20330.09;;;-141.84;89.62
15260;BME280;34462;51.368;12.364;2023-09-19T01:57:53;20334.16;;;-141.84;89.74
15260;BME280;34462;51.368;12.364;2023-09-19T02:00:25;20313.84;;;-141.84;90.09
15260;BME280;34462;51.368;12.364;2023-09-19T02:02:57;20307.72;;;-141.84;90.40
15260;BME280;34462;51.368;12.364;2023-09-19T02:05:27;20387.00;;;-141.84;88.27
15260;BME280;34462;51.368;12.364;2023-09-19T02:07:56;20405.31;;;-141.84;88.41
15260;BME280;34462;51.368;12.364;2023-09-19T02:10:25;20399.19;;;-141.84;87.06
15260;BME280;34462;51.368;12.364;2023-09-19T02:12:54;20391.06;;;-141.84;86.86
15260;BME280;34462;51.368;12.364;2023-09-19T02:15:23;20452.06;;;-141.84;85.03
15260;BME280;34462;51.368;12.364;2023-09-19T02:17:51;20441.88;;;-141.84;85.50
15260;BME280;34462;51.368;12.364;2023-09-19T02:20:21;20419.53;;;-141.84;84.90
15260;BME280;34462;51.368;12.364;2023-09-19T02:22:49;20454.09;;;-141.84;85.57
15260;BME280;34462;51.368;12.364;2023-09-19T02:25:19;20439.84;;;-141.84;85.47
15260;BME280;34462;51.368;12.364;2023-09-19T02:27:47;20452.06;;;-141.84;85.81
15260;BME280;34462;51.368;12.364;2023-09-19T02:30:15;20409.38;;;-141.84;85.33
15260;BME280;34462;51.368;12.364;2023-09-19T02:32:47;20389.03;;;-141.84;85.50
15260;BME280;34462;51.368;12.364;2023-09-19T02:35:16;20456.13;;;-141.84;84.32
15260;BME280;34462;51.368;12.364;2023-09-19T02:37:48;20492.72;;;-141.84;82.37
15260;BME280;34462;51.368;12.364;2023-09-19T02:40:17;20458.16;;;-141.84;82.58
15260;BME280;34462;51.368;12.364;2023-09-19T02:42:49;20523.19;;;-141.84;81.93
15260;BME280;34462;51.368;12.364;2023-09-19T02:45:21;20502.88;;;-141.84;82.48
15260;BME280;34462;51.368;12.364;2023-09-19T02:47:50;20569.94;;;-141.84;80.27
15260;BME280;34462;51.368;12.364;2023-09-19T02:50:19;20639.06;;;-141.84;79.35
15260;BME280;34462;51.368;12.364;2023-09-19T02:52:48;20630.94;;;-141.84;79.37
15260;BME280;34462;51.368;12.364;2023-09-19T02:55:18;20582.16;;;-141.84;80.08
15260;BME280;34462;51.368;12.364;2023-09-19T02:57:51;20559.78;;;-141.84;80.26
15260;BME280;34462;51.368;12.364;2023-09-19T03:00:20;20555.72;;;-141.84;80.77
15260;BME280;34462;51.368;12.364;2023-09-19T03:02:50;20600.44;;;-141.84;79.12
15260;BME280;34462;51.368;12.364;2023-09-19T03:05:19;20574.00;;;-141.84;78.94
15260;BME280;34462;51.368;12.364;2023-09-19T03:07:50;20574.00;;;-141.84;79.12
15260;BME280;34462;51.368;12.364;2023-09-19T03:10:19;20547.59;;;-141.84;79.36
15260;BME280;34462;51.368;12.364;2023-09-19T03:12:49;20596.38;;;-141.84;78.50
15260;BME280;34462;51.368;12.364;2023-09-19T03:15:17;20582.16;;;-141.84;79.07
15260;BME280;34462;51.368;12.364;2023-09-19T03:17:48;20612.63;;;-141.84;78.02
15260;BME280;34462;51.368;12.364;2023-09-19T03:20:16;20622.81;;;-141.84;78.17
15260;BME280;34462;51.368;12.364;2023-09-19T03:22:46;20610.59;;;-141.84;78.31
15260;BME280;34462;51.368;12.364;2023-09-19T03:25:16;20614.66;;;-141.84;78.12
15260;BME280;34462;51.368;12.364;2023-09-19T03:27:46;20584.19;;;-141.84;79.24
15260;BME280;34462;51.368;12.364;2023-09-19T03:30:15;20523.19;;;-141.84;79.40
15260;BME280;34462;51.368;12.364;2023-09-19T03:32:45;20602.47;;;-141.84;78.87
15260;BME280;34462;51.368;12.364;2023-09-19T03:35:14;20521.16;;;-141.84;79.89
15260;BME280;34462;51.368;12.364;2023-09-19T03:37:43;20588.25;;;-141.84;78.22
15260;BME280;34462;51.368;12.364;2023-09-19T03:40:12;20571.97;;;-141.84;79.47
15260;BME280;34462;51.368;12.364;2023-09-19T03:42:42;20515.06;;;-141.84;80.28
15260;BME280;34462;51.368;12.364;2023-09-19T03:45:10;20517.09;;;-141.84;80.36
15260;BME280;34462;51.368;12.364;2023-09-19T03:47:40;20480.50;;;-141.84;81.03
15260;BME280;34462;51.368;12.364;2023-09-19T03:50:09;20500.84;;;-141.84;80.55
15260;BME280;34462;51.368;12.364;2023-09-19T03:52:39;20519.13;;;-141.84;80.59
15260;BME280;34462;51.368;12.364;2023-09-19T03:55:08;20468.31;;;-141.84;81.25
15260;BME280;34462;51.368;12.364;2023-09-19T03:57:36;20433.75;;;-141.84;81.90
15260;BME280;34462;51.368;12.364;2023-09-19T04:00:08;20472.38;;;-141.84;81.16
15260;BME280;34462;51.368;12.364;2023-09-19T04:02:39;20468.31;;;-141.84;80.88
15260;BME280;34462;51.368;12.364;2023-09-19T04:05:08;20488.63;;;-141.84;80.99
15260;BME280;34462;51.368;12.364;2023-09-19T04:07:37;20484.56;;;-141.84;80.88
15260;BME280;34462;51.368;12.364;2023-09-19T04:10:06;20476.44;;;-141.84;81.67
15260;BME280;34462;51.368;12.364;2023-09-19T04:12:38;20458.16;;;-141.84;81.43
15260;BME280;34462;51.368;12.364;2023-09-19T04:15:09;20399.19;;;-141.84;81.94
15260;BME280;34462;51.368;12.364;2023-09-19T04:17:42;20425.63;;;-141.84;82.33
15260;BME280;34462;51.368;12.364;2023-09-19T04:20:11;20407.34;;;-141.84;82.39
15260;BME280;34462;51.368;12.364;2023-09-19T04:22:40;20445.94;;;-141.84;81.75
15260;BME280;34462;51.368;12.364;2023-09-19T04:25:08;20437.81;;;-141.84;81.37
15260;BME280;34462;51.368;12.364;2023-09-19T04:27:37;20458.16;;;-141.84;81.16
15260;BME280;34462;51.368;12.364;2023-09-19T04:30:08;20431.72;;;-141.84;82.08
15260;BME280;34462;51.368;12.364;2023-09-19T04:32:38;20443.91;;;-141.84;81.23
15260;BME280;34462;51.368;12.364;2023-09-19T04:35:08;20403.25;;;-141.84;82.10
15260;BME280;34462;51.368;12.364;2023-09-19T04:37:38;20500.84;;;-141.84;80.34
15260;BME280;34462;51.368;12.364;2023-09-19T04:40:09;20437.81;;;-141.84;80.08
15260;BME280;34462;51.368;12.364;2023-09-19T04:42:40;20480.50;;;-141.84;79.89
15260;BME280;34462;51.368;12.364;2023-09-19T04:45:11;20488.63;;;-141.84;80.25
15260;BME280;34462;51.368;12.364;2023-09-19T04:47:39;20460.19;;;-141.84;79.69
15260;BME280;34462;51.368;12.364;2023-09-19T04:50:09;20450.03;;;-141.84;80.07
15260;BME280;34462;51.368;12.364;2023-09-19T04:52:42;20502.88;;;-141.84;79.10
15260;BME280;34462;51.368;12.364;2023-09-19T04:55:12;20529.28;;;-141.84;78.05
15260;BME280;34462;51.368;12.364;2023-09-19T04:57:44;20423.59;;;-141.84;79.42
15260;BME280;34462;51.368;12.364;2023-09-19T05:00:16;20460.19;;;-141.84;79.08
15260;BME280;34462;51.368;12.364;2023-09-19T05:02:48;20482.53;;;-141.84;78.91
15260;BME280;34462;51.368;12.364;2023-09-19T05:05:18;20482.53;;;-141.84;78.97
15260;BME280;34462;51.368;12.364;2023-09-19T05:07:47;20460.19;;;-141.84;78.52
15260;BME280;34462;51.368;12.364;2023-09-19T05:10:15;20498.81;;;-141.84;77.37
15260;BME280;34462;51.368;12.364;2023-09-19T05:12:45;20462.22;;;-141.84;78.08
15260;BME280;34462;51.368;12.364;2023-09-19T05:15:16;20470.34;;;-141.84;78.22
15260;BME280;34462;51.368;12.364;2023-09-19T05:17:48;20476.44;;;-141.84;77.92
15260;BME280;34462;51.368;12.364;2023-09-19T05:20:23;20472.38;;;-141.84;78.14
15260;BME280;34462;51.368;12.364;2023-09-19T05:23:00;20488.63;;;-141.84;77.66
15260;BME280;34462;51.368;12.364;2023-09-19T05:25:31;20513.03;;;-141.84;77.28
15260;BME280;34462;51.368;12.364;2023-09-19T05:28:05;20470.34;;;-141.84;77.58
15260;BME280;34462;51.368;12.364;2023-09-19T05:30:36;20431.72;;;-141.84;78.63
15260;BME280;34462;51.368;12.364;2023-09-19T05:33:05;20413.44;;;-141.84;79.34
15260;BME280;34462;51.368;12.364;2023-09-19T05:35:34;20423.59;;;-141.84;78.96
15260;BME280;34462;51.368;12.364;2023-09-19T05:38:04;20431.72;;;-141.84;78.23
15260;BME280;34462;51.368;12.364;2023-09-19T05:40:35;20478.47;;;-141.84;76.59
15260;BME280;34462;51.368;12.364;2023-09-19T05:43:05;20490.66;;;-141.84;77.78
15260;BME280;34462;51.368;12.364;2023-09-19T05:45:35;20500.84;;;-141.84;77.20
15260;BME280;34462;51.368;12.364;2023-09-19T05:48:09;20478.47;;;-141.84;77.75
15260;BME280;34462;51.368;12.364;2023-09-19T05:50:38;20443.91;;;-141.84;77.93
15260;BME280;34462;51.368;12.364;2023-09-19T05:53:07;20417.50;;;-141.84;78.42
15260;BME280;34462;51.368;12.364;2023-09-19T05:55:35;20464.25;;;-141.84;78.78
15260;BME280;34462;51.368;12.364;2023-09-19T05:58:03;20423.59;;;-141.84;78.02
15260;BME280;34462;51.368;12.364;2023-09-19T06:00:32;20456.13;;;-141.84;78.07
15260;BME280;34462;51.368;12.364;2023-09-19T06:03:04;20464.25;;;-141.84;77.46
15260;BME280;34462;51.368;12.364;2023-09-19T06:05:33;20445.94;;;-141.84;77.48
15260;BME280;34462;51.368;12.364;2023-09-19T06:08:01;20405.31;;;-141.84;77.64
15260;BME280;34462;51.368;12.364;2023-09-19T06:10:35;20460.19;;;-141.84;77.18
15260;BME280;34462;51.368;12.364;2023-09-19T06:13:03;20468.31;;;-141.84;77.85
15260;BME280;34462;51.368;12.364;2023-09-19T06:15:33;20468.31;;;-141.84;77.76
15260;BME280;34462;51.368;12.364;2023-09-19T06:18:04;20466.28;;;-141.84;77.73
15260;BME280;34462;51.368;12.364;2023-09-19T06:20:33;20504.91;;;-141.84;76.17
15260;BME280;34462;51.368;12.364;2023-09-19T06:23:03;20537.44;;;-141.84;75.51
15260;BME280;34462;51.368;12.364;2023-09-19T06:25:31;20586.22;;;-141.84;74.98
15260;BME280;34462;51.368;12.364;2023-09-19T06:28:00;20610.59;;;-141.84;74.04
15260;BME280;34462;51.368;12.364;2023-09-19T06:30:32;20663.47;;;-141.84;73.43
15260;BME280;34462;51.368;12.364;2023-09-19T06:33:01;20671.59;;;-141.84;73.06
15260;BME280;34462;51.368;12.364;2023-09-19T06:35:33;20744.78;;;-141.84;71.80
15260;BME280;34462;51.368;12.364;2023-09-19T06:38:03;20773.22;;;-141.84;70.91
15260;BME280;34462;51.368;12.364;2023-09-19T06:40:34;20797.63;;;-141.84;70.69
15260;BME280;34462;51.368;12.364;2023-09-19T06:43:04;20850.47;;;-141.84;69.38
15260;BME280;34462;51.368;12.364;2023-09-19T06:45:33;20927.72;;;-141.84;67.87
15260;BME280;34462;51.368;12.364;2023-09-19T06:48:01;20911.47;;;-141.84;68.23
15260;BME280;34462;51.368;12.364;2023-09-19T06:50:31;20952.13;;;-141.84;67.78
15260;BME280;34462;51.368;12.364;2023-09-19T06:53:03;20968.38;;;-141.84;67.67
15260;BME280;34462;51.368;12.364;2023-09-19T06:55:31;21025.31;;;-141.84;66.54
15260;BME280;34462;51.368;12.364;2023-09-19T06:58:00;21019.22;;;-141.84;66.94
15260;BME280;34462;51.368;12.364;2023-09-19T07:00:28;21086.31;;;-141.84;66.19
15260;BME280;34462;51.368;12.364;2023-09-19T07:03:00;21116.78;;;-141.84;66.58
15260;BME280;34462;51.368;12.364;2023-09-19T07:05:34;21216.41;;;-141.84;64.53
15260;BME280;34462;51.368;12.364;2023-09-19T07:08:08;21214.38;;;-141.84;63.51
15260;BME280;34462;51.368;12.364;2023-09-19T07:10:38;21299.78;;;-141.84;62.26
15260;BME280;34462;51.368;12.364;2023-09-19T07:13:08;21307.91;;;-141.84;60.91
15260;BME280;34462;51.368;12.364;2023-09-19T07:15:39;21362.81;;;-141.84;60.82
15260;BME280;34462;51.368;12.364;2023-09-19T07:18:14;21297.75;;;-141.84;61.33
15260;BME280;34462;51.368;12.364;2023-09-19T07:20:45;21314.00;;;-141.84;61.38
15260;BME280;34462;51.368;12.364;2023-09-19T07:23:17;21356.69;;;-141.84;60.73
15260;BME280;34462;51.368;12.364;2023-09-19T07:25:46;21303.84;;;-141.84;61.12
15260;BME280;34462;51.368;12.364;2023-09-19T07:28:17;21283.50;;;-141.84;61.74
15260;BME280;34462;51.368;12.364;2023-09-19T07:30:46;21299.78;;;-141.84;60.56
15260;BME280;34462;51.368;12.364;2023-09-19T07:33:14;21295.72;;;-141.84;59.45
15260;BME280;34462;51.368;12.364;2023-09-19T07:35:47;21255.03;;;-141.84;60.30
15260;BME280;34462;51.368;12.364;2023-09-19T07:38:15;21332.31;;;-141.84;58.80
15260;BME280;34462;51.368;12.364;2023-09-19T07:40:44;21326.22;;;-141.84;59.72
15260;BME280;34462;51.368;12.364;2023-09-19T07:43:13;21395.34;;;-141.84;58.38
15260;BME280;34462;51.368;12.364;2023-09-19T07:45:41;21397.38;;;-141.84;57.74
15260;BME280;34462;51.368;12.364;2023-09-19T07:48:10;21448.19;;;-141.84;57.01
15260;BME280;34462;51.368;12.364;2023-09-19T07:50:41;21468.53;;;-141.84;57.28
15260;BME280;34462;51.368;12.364;2023-09-19T07:53:13;21482.75;;;-141.84;56.52
15260;BME280;34462;51.368;12.364;2023-09-19T07:55:43;21529.53;;;-141.84;55.77
15260;BME280;34462;51.368;12.364;2023-09-19T07:58:15;21503.09;;;-141.84;55.90
15260;BME280;34462;51.368;12.364;2023-09-19T08:00:43;21537.66;;;-141.84;55.47
15260;BME280;34462;51.368;12.364;2023-09-19T08:03:13;21614.94;;;-141.84;54.88
15260;BME280;34462;51.368;12.364;2023-09-19T08:05:44;21606.78;;;-141.84;54.43
15260;BME280;34462;51.368;12.364;2023-09-19T08:08:14;21537.66;;;-141.84;54.91
15260;BME280;34462;51.368;12.364;2023-09-19T08:10:43;21553.94;;;-141.84;55.18
15260;BME280;34462;51.368;12.364;2023-09-19T08:13:13;21564.09;;;-141.84;55.80
15260;BME280;34462;51.368;12.364;2023-09-19T08:15:44;21592.56;;;-141.84;55.62
15260;BME280;34462;51.368;12.364;2023-09-19T08:18:13;21562.06;;;-141.84;56.69
15260;BME280;34462;51.368;12.364;2023-09-19T08:20:41;21541.72;;;-141.84;56.07
15260;BME280;34462;51.368;12.364;2023-09-19T08:23:14;21543.75;;;-141.84;56.54
15260;BME280;34462;51.368;12.364;2023-09-19T08:25:45;21527.50;;;-141.84;56.44
15260;BME280;34462;51.368;12.364;2023-09-19T08:28:13;21492.94;;;-141.84;55.95
15260;BME280;34462;51.368;12.364;2023-09-19T08:30:46;21470.56;;;-141.84;56.08
15260;BME280;34462;51.368;12.364;2023-09-19T08:33:14;21436.00;;;-141.84;57.57
15260;BME280;34462;51.368;12.364;2023-09-19T08:35:43;21466.50;;;-141.84;56.98
15260;BME280;34462;51.368;12.364;2023-09-19T08:38:14;21478.69;;;-141.84;56.99
15260;BME280;34462;51.368;12.364;2023-09-19T08:40:42;21517.31;;;-141.84;56.25
15260;BME280;34462;51.368;12.364;2023-09-19T08:43:10;21472.59;;;-141.84;56.63
15260;BME280;34462;51.368;12.364;2023-09-19T08:45:39;21486.81;;;-141.84;56.79
15260;BME280;34462;51.368;12.364;2023-09-19T08:48:22;21474.63;;;-141.84;56.84
15260;BME280;34462;51.368;12.364;2023-09-19T08:50:57;21440.06;;;-141.84;56.21
15260;BME280;34462;51.368;12.364;2023-09-19T08:53:39;21452.25;;;-141.84;56.78
15260;BME280;34462;51.368;12.364;2023-09-19T08:56:12;21474.63;;;-141.84;56.56
15260;BME280;34462;51.368;12.364;2023-09-19T08:58:46;21494.97;;;-141.84;56.64
15260;BME280;34462;51.368;12.364;2023-09-19T09:01:16;21464.47;;;-141.84;57.09
15260;BME280;34462;51.368;12.364;2023-09-19T09:03:53;21505.13;;;-141.84;56.89
15260;BME280;34462;51.368;12.364;2023-09-19T09:06:23;21537.66;;;-141.84;56.27
15260;BME280;34462;51.368;12.364;2023-09-19T09:08:53;21641.34;;;-141.84;54.74
15260;BME280;34462;51.368;12.364;2023-09-19T09:11:22;21684.06;;;-141.84;54.48
15260;BME280;34462;51.368;12.364;2023-09-19T09:13:52;21688.13;;;-141.84;54.33
15260;BME280;34462;51.368;12.364;2023-09-19T09:16:20;21665.75;;;-141.84;52.54
15260;BME280;34462;51.368;12.364;2023-09-19T09:18:53;21637.28;;;-141.84;52.37
15260;BME280;34462;51.368;12.364;2023-09-19T09:21:25;21667.78;;;-141.84;51.96
15260;BME280;34462;51.368;12.364;2023-09-19T09:23:54;21653.56;;;-141.84;51.73
15260;BME280;34462;51.368;12.364;2023-09-19T09:26:41;21728.78;;;-141.84;51.53
15260;BME280;34462;51.368;12.364;2023-09-19T09:29:10;21753.19;;;-141.84;51.28
15260;BME280;34462;51.368;12.364;2023-09-19T09:31:41;21745.06;;;-141.84;51.37
15260;BME280;34462;51.368;12.364;2023-09-19T09:34:11;21885.38;;;-141.84;49.67
15260;BME280;34462;51.368;12.364;2023-09-19T09:36:41;21810.13;;;-141.84;48.12
15260;BME280;34462;51.368;12.364;2023-09-19T09:39:10;21867.06;;;-141.84;47.42
15260;BME280;34462;51.368;12.364;2023-09-19T09:41:51;21875.19;;;-141.84;47.60
15260;BME280;34462;51.368;12.364;2023-09-19T09:44:19;21891.47;;;-141.84;46.65
15260;BME280;34462;51.368;12.364;2023-09-19T09:46:48;21928.06;;;-141.84;46.62
15260;BME280;34462;51.368;12.364;2023-09-19T09:49:48;21893.50;;;-141.84;46.98
15260;BME280;34462;51.368;12.364;2023-09-19T09:52:45;21901.63;;;-141.84;46.49
15260;BME280;34462;51.368;12.364;2023-09-19T09:55:15;21860.97;;;-141.84;46.47
15260;BME280;34462;51.368;12.364;2023-09-19T09:57:45;21869.09;;;-141.84;45.55
15260;BME280;34462;51.368;12.364;2023-09-19T10:00:14;21808.09;;;-141.84;47.22
15260;BME280;34462;51.368;12.364;2023-09-19T10:02:48;21822.31;;;-141.84;46.70
15260;BME280;34462;51.368;12.364;2023-09-19T10:05:18;21836.56;;;-141.84;45.61
15260;BME280;34462;51.368;12.364;2023-09-19T10:08:11;21789.78;;;-141.84;46.79
15260;BME280;34462;51.368;12.364;2023-09-19T10:10:41;21812.16;;;-141.84;45.99
15260;BME280;34462;51.368;12.364;2023-09-19T10:13:21;21787.75;;;-141.84;46.91
15260;BME280;34462;51.368;12.364;2023-09-19T10:15:54;21802.00;;;-141.84;47.38
15260;BME280;34462;51.368;12.364;2023-09-19T10:18:27;21757.25;;;-141.84;46.77
15260;BME280;34462;51.368;12.364;2023-09-19T10:20:57;21755.22;;;-141.84;47.23
15260;BME280;34462;51.368;12.364;2023-09-19T10:23:27;21704.38;;;-141.84;47.19
15260;BME280;34462;51.368;12.364;2023-09-19T10:26:01;21704.38;;;-141.84;47.51
15260;BME280;34462;51.368;12.364;2023-09-19T10:28:32;21684.06;;;-141.84;47.33
15260;BME280;34462;51.368;12.364;2023-09-19T10:31:02;21690.16;;;-141.84;47.48
15260;BME280;34462;51.368;12.364;2023-09-19T10:33:36;21684.06;;;-141.84;47.33
15260;BME280;34462;51.368;12.364;2023-09-19T10:36:05;21702.34;;;-141.84;47.11
15260;BME280;34462;51.368;12.364;2023-09-19T10:38:39;21688.13;;;-141.84;48.26
15260;BME280;34462;51.368;12.364;2023-09-19T10:41:16;21726.75;;;-141.84;47.03
15260;BME280;34462;51.368;12.364;2023-09-19T10:43:48;21704.38;;;-141.84;47.76
15260;BME280;34462;51.368;12.364;2023-09-19T10:46:18;21712.53;;;-141.84;48.10
15260;BME280;34462;51.368;12.364;2023-09-19T10:48:47;21755.22;;;-141.84;47.46
15260;BME280;34462;51.368;12.364;2023-09-19T10:51:24;21761.31;;;-141.84;46.05
15260;BME280;34462;51.368;12.364;2023-09-19T10:54:06;21793.84;;;-141.84;45.81
15260;BME280;34462;51.368;12.364;2023-09-19T10:56:46;21806.06;;;-141.84;46.90
15260;BME280;34462;51.368;12.364;2023-09-19T10:59:19;21824.34;;;-141.84;46.62
15260;BME280;34462;51.368;12.364;2023-09-19T11:01:51;21903.66;;;-141.84;45.02
15260;BME280;34462;51.368;12.364;2023-09-19T11:04:26;21893.50;;;-141.84;45.41
15260;BME280;34462;51.368;12.364;2023-09-19T11:07:02;21875.19;;;-141.84;44.72
15260;BME280;34462;51.368;12.364;2023-09-19T11:09:45;21838.59;;;-141.84;44.90
15260;BME280;34462;51.368;12.364;2023-09-19T11:12:49;21877.22;;;-141.84;44.53
15260;BME280;34462;51.368;12.364;2023-09-19T11:18:53;21818.25;;;-141.84;44.70
15260;BME280;34462;51.368;12.364;2023-09-19T11:21:51;21834.53;;;-141.84;44.88
15260;BME280;34462;51.368;12.364;2023-09-19T11:24:33;21822.31;;;-141.84;44.88
15260;BME280;34462;51.368;12.364;2023-09-19T11:27:15;21799.97;;;-141.84;45.57
15260;BME280;34462;51.368;12.364;2023-09-19T11:29:46;21812.16;;;-141.84;44.76
15260;BME280;34462;51.368;12.364;2023-09-19T11:32:16;21834.53;;;-141.84;44.57
15260;BME280;34462;51.368;12.364;2023-09-19T11:34:48;21822.31;;;-141.84;44.55
15260;BME280;34462;51.368;12.364;2023-09-19T11:37:59;21877.22;;;-141.84;44.28
15260;BME280;34462;51.368;12.364;2023-09-19T11:40:44;21879.25;;;-141.84;43.65
15260;BME280;34462;51.368;12.364;2023-09-19T11:43:31;21842.66;;;-141.84;44.24
15260;BME280;34462;51.368;12.364;2023-09-19T11:46:08;21838.59;;;-141.84;44.70
15260;BME280;34462;51.368;12.364;2023-09-19T11:48:39;21826.41;;;-141.84;45.05
15260;BME280;34462;51.368;12.364;2023-09-19T11:51:17;21840.63;;;-141.84;45.21
15260;BME280;34462;51.368;12.364;2023-09-19T11:53:55;21897.56;;;-141.84;43.77
15260;BME280;34462;51.368;12.364;2023-09-19T11:56:25;21844.69;;;-141.84;44.04
15260;BME280;34462;51.368;12.364;2023-09-19T11:58:56;21804.03;;;-141.84;45.01
15260;BME280;34462;51.368;12.364;2023-09-19T12:01:31;21863.00;;;-141.84;45.48
15260;BME280;34462;51.368;12.364;2023-09-19T12:04:05;21919.94;;;-141.84;43.59
15260;BME280;34462;51.368;12.364;2023-09-19T12:06:35;21915.88;;;-141.84;43.93
15260;BME280;34462;51.368;12.364;2023-09-19T12:09:05;21907.72;;;-141.84;44.36
15260;BME280;34462;51.368;12.364;2023-09-19T12:11:42;21913.84;;;-141.84;43.70
15260;BME280;34462;51.368;12.364;2023-09-19T12:14:11;21926.03;;;-141.84;44.97
15260;BME280;34462;51.368;12.364;2023-09-19T12:16:54;21895.53;;;-141.84;45.00
15260;BME280;34462;51.368;12.364;2023-09-19T12:19:23;21887.41;;;-141.84;44.51
15260;BME280;34462;51.368;12.364;2023-09-19T12:21:58;21883.31;;;-141.84;44.82
15260;BME280;34462;51.368;12.364;2023-09-19T12:24:33;21883.31;;;-141.84;45.09
15260;BME280;34462;51.368;12.364;2023-09-19T12:27:06;21911.78;;;-141.84;45.66
15260;BME280;34462;51.368;12.364;2023-09-19T12:29:44;21972.81;;;-141.84;44.38
15260;BME280;34462;51.368;12.364;2023-09-19T12:32:13;21948.41;;;-141.84;44.52
15260;BME280;34462;51.368;12.364;2023-09-19T12:34:51;21905.69;;;-141.84;44.72
15260;BME280;34462;51.368;12.364;2023-09-19T12:37:22;21940.25;;;-141.84;43.82
15260;BME280;34462;51.368;12.364;2023-09-19T12:40:05;21976.88;;;-141.84;42.66
15260;BME280;34462;51.368;12.364;2023-09-19T12:42:44;22041.94;;;-141.84;43.62
15260;BME280;34462;51.368;12.364;2023-09-19T12:45:13;22037.88;;;-141.84;43.86
15260;BME280;34462;51.368;12.364;2023-09-19T12:48:21;22060.25;;;-141.84;42.05
15260;BME280;34462;51.368;12.364;2023-09-19T12:51:01;22007.38;;;-141.84;43.09
15260;BME280;34462;51.368;12.364;2023-09-19T12:53:33;22001.28;;;-141.84;44.00
15260;BME280;34462;51.368;12.364;2023-09-19T12:56:07;22011.44;;;-141.84;42.92
15260;BME280;34462;51.368;12.364;2023-09-19T12:58:49;21954.50;;;-141.84;43.71
15260;BME280;34462;51.368;12.364;2023-09-19T13:01:18;22027.72;;;-141.84;42.42
15260;BME280;34462;51.368;12.364;2023-09-19T13:04:11;21960.59;;;-141.84;42.31